Time;durP1;ratioP1;P1;durP2;ratioP2;P2;SDS_P1;SDS_P2;PMS_P1;PMS_P2;Temp;Humidity;BMP_temperature;BMP_pressure;BME280_temperature;BME280_humidity;BME280_pressure;Samples;Min_cycle;Max_cycle;Signal;HPM_P1;HPM_P2
2023/06/10 00:02:25;;;;;;;6.27;2.60;;;15.80;99.90;15.20;100812;;;;589168;243;24124;-80
2023/06/10 00:04:50;;;;;;;5.50;3.17;;;15.80;99.90;15.30;100809;;;;580271;244;24097;-80
2023/06/10 00:07:19;;;;;;;4.57;2.57;;;15.80;99.90;15.20;100817;;;;586359;244;24168;-82
2023/06/10 00:09:48;;;;;;;6.50;2.73;;;15.80;99.90;15.20;100820;;;;589350;243;24072;-80
2023/06/10 00:12:16;;;;;;;9.03;3.00;;;15.80;99.90;15.20;100825;;;;588988;243;24076;-79
2023/06/10 00:14:44;;;;;;;5.57;2.93;;;15.80;99.90;15.30;100822;;;;589413;243;24117;-80
2023/06/10 00:17:11;;;;;;;10.83;3.13;;;15.80;99.90;15.20;100826;;;;589120;243;24068;-80
2023/06/10 00:19:42;;;;;;;8.87;3.50;;;15.80;99.90;15.20;100824;;;;580208;244;24057;-80
2023/06/10 00:22:10;;;;;;;5.00;2.30;;;15.80;99.90;15.20;100816;;;;580620;244;24094;-79
2023/06/10 00:24:35;;;;;;;5.07;2.90;;;15.80;99.90;15.20;100818;;;;581611;243;24077;-78
2023/06/10 00:27:03;;;;;;;4.43;2.87;;;15.80;99.90;15.20;100817;;;;591051;242;24120;-80
2023/06/10 00:29:31;;;;;;;3.40;2.70;;;15.70;99.90;15.10;100822;;;;581602;244;24056;-80
2023/06/10 00:32:00;;;;;;;5.47;2.50;;;15.70;99.90;15.10;100833;;;;590472;243;24069;-79
2023/06/10 00:34:28;;;;;;;4.90;2.73;;;15.70;99.90;15.10;100830;;;;589989;243;24151;-80
2023/06/10 00:36:55;;;;;;;8.53;2.77;;;15.70;99.90;15.10;100834;;;;581340;244;24062;-78
2023/06/10 00:39:23;;;;;;;5.77;2.63;;;15.70;99.90;15.00;100824;;;;587805;244;24080;-78
2023/06/10 00:41:51;;;;;;;8.57;2.47;;;15.60;99.90;15.00;100836;;;;581309;244;24058;-79
2023/06/10 00:44:19;;;;;;;3.17;2.57;;;15.60;99.90;14.90;100831;;;;581087;244;24120;-79
2023/06/10 00:46:51;;;;;;;3.20;2.60;;;15.50;99.90;14.80;100831;;;;589510;243;24083;-79
2023/06/10 00:49:19;;;;;;;3.63;2.60;;;15.50;99.90;14.80;100836;;;;580099;244;24080;-79
2023/06/10 00:51:44;;;;;;;4.30;2.40;;;15.40;99.90;14.80;100843;;;;580088;244;24131;-79
2023/06/10 00:54:13;;;;;;;2.97;2.00;;;15.30;99.90;14.70;100844;;;;580837;244;24085;-80
2023/06/10 00:56:43;;;;;;;3.73;2.23;;;15.30;99.90;14.70;100844;;;;580810;244;24099;-80
2023/06/10 00:59:07;;;;;;;7.80;2.67;;;15.20;99.90;14.60;100845;;;;586330;241;24075;-82
2023/06/10 01:01:39;;;;;;;3.40;1.90;;;15.20;99.90;14.60;100852;;;;589219;243;24071;-82
2023/06/10 01:04:04;;;;;;;2.40;2.20;;;15.20;99.90;14.50;100850;;;;579979;244;24087;-80
2023/06/10 01:06:47;;;;;;;4.50;2.10;;;15.10;99.90;14.50;100856;;;;589169;243;24140;-80
2023/06/10 01:09:25;;;;;;;5.90;2.43;;;15.00;99.90;14.40;100854;;;;579772;244;24072;-81
2023/06/10 01:11:56;;;;;;;4.03;2.10;;;15.00;99.90;14.30;100855;;;;580046;244;24121;-81
2023/06/10 01:14:24;;;;;;;2.20;1.63;;;14.90;99.90;14.30;100855;;;;562556;252;24098;-82
2023/06/10 01:16:53;;;;;;;9.33;2.23;;;14.90;99.90;14.20;100859;;;;565281;251;24097;-79
2023/06/10 01:19:23;;;;;;;3.67;2.43;;;14.90;99.90;14.20;100861;;;;561992;252;24121;-81
2023/06/10 01:21:48;;;;;;;7.20;2.13;;;14.80;99.90;14.20;100858;;;;561846;247;24120;-80
2023/06/10 01:24:18;;;;;;;6.47;2.30;;;14.80;99.90;14.10;100867;;;;562064;252;24082;-81
2023/06/10 01:26:44;;;;;;;7.43;2.00;;;14.80;99.90;14.10;100869;;;;570449;249;24195;-80
2023/06/10 01:29:26;;;;;;;3.80;2.17;;;14.70;99.90;14.10;100861;;;;562148;252;24157;-80
2023/06/10 01:31:57;;;;;;;7.10;2.73;;;14.70;99.90;14.00;100859;;;;579750;247;24124;-79
2023/06/10 01:34:25;;;;;;;6.00;2.30;;;14.60;99.90;14.00;100861;;;;559483;252;24102;-81
2023/06/10 01:36:56;;;;;;;3.33;2.20;;;14.60;99.90;14.00;100869;;;;566742;250;24088;-80
2023/06/10 01:39:20;;;;;;;3.73;2.40;;;14.60;99.90;14.00;100865;;;;561160;250;24132;-80
2023/06/10 01:41:52;;;;;;;5.47;2.00;;;14.50;99.90;13.90;100869;;;;560982;250;24126;-81
2023/06/10 01:44:23;;;;;;;4.20;2.30;;;14.50;99.90;13.90;100870;;;;572222;247;24102;-81
2023/06/10 01:46:52;;;;;;;2.60;2.40;;;14.50;99.90;13.80;100880;;;;565210;250;24125;-80
2023/06/10 01:49:16;;;;;;;8.47;2.20;;;14.40;99.90;13.70;100873;;;;571788;247;24086;-79
2023/06/10 01:51:44;;;;;;;2.80;2.23;;;14.40;99.90;13.70;100889;;;;573625;248;25191;-83
2023/06/10 01:54:12;;;;;;;6.70;2.37;;;14.40;99.90;13.70;100887;;;;569757;250;24080;-81
2023/06/10 01:56:41;;;;;;;3.67;1.57;;;14.30;99.90;13.60;100885;;;;569690;250;24097;-81
2023/06/10 01:59:09;;;;;;;3.13;1.83;;;14.30;99.90;13.60;100898;;;;569300;248;24110;-80
2023/06/10 02:01:37;;;;;;;8.90;2.07;;;14.30;99.90;13.60;100895;;;;569246;250;24094;-80
2023/06/10 02:04:05;;;;;;;2.10;1.80;;;14.30;99.90;13.60;100900;;;;569570;250;24131;-81
2023/06/10 02:06:34;;;;;;;5.53;2.57;;;14.30;99.90;13.60;100899;;;;569272;250;24084;-80
2023/06/10 02:09:04;;;;;;;7.67;2.20;;;14.30;99.90;13.60;100906;;;;569358;250;24141;-81
2023/06/10 02:11:29;;;;;;;5.50;2.23;;;14.30;99.90;13.60;100903;;;;571823;247;24163;-80
2023/06/10 02:13:57;;;;;;;5.33;1.80;;;14.20;99.90;13.60;100906;;;;561864;252;24196;-79
2023/06/10 02:16:26;;;;;;;3.13;2.00;;;14.20;99.90;13.60;100905;;;;570558;249;24138;-80
2023/06/10 02:18:54;;;;;;;3.00;2.10;;;14.20;99.90;13.60;100908;;;;562014;252;24169;-79
2023/06/10 02:21:22;;;;;;;7.23;2.30;;;14.20;99.90;13.60;100907;;;;569969;252;24111;-79
2023/06/10 02:23:50;;;;;;;2.13;1.53;;;14.20;99.90;13.50;100908;;;;562333;252;24136;-80
2023/06/10 02:26:18;;;;;;;3.40;1.83;;;14.20;99.90;13.50;100917;;;;570866;250;24138;-78
2023/06/10 02:28:46;;;;;;;4.47;2.10;;;14.20;99.90;13.50;100920;;;;562201;252;24121;-81
2023/06/10 02:31:18;;;;;;;7.27;2.20;;;14.20;99.90;13.60;100914;;;;568167;253;24092;-80
2023/06/10 02:33:42;;;;;;;2.80;1.50;;;14.20;99.90;13.50;100916;;;;569688;248;24113;-81
2023/06/10 02:36:13;;;;;;;6.10;2.10;;;14.20;99.90;13.60;100917;;;;576189;248;24095;-81
2023/06/10 02:38:37;;;;;;;2.30;1.50;;;14.20;99.90;13.60;100919;;;;578559;247;25175;-80
2023/06/10 02:41:05;;;;;;;4.77;1.60;;;14.20;99.90;13.60;100908;;;;576195;248;24116;-80
2023/06/10 02:43:36;;;;;;;7.17;1.97;;;14.20;99.90;13.60;100912;;;;575705;248;24168;-81
2023/06/10 02:46:01;;;;;;;3.47;1.53;;;14.30;99.90;13.70;100925;;;;569680;248;24125;-80
2023/06/10 02:48:29;;;;;;;2.47;1.30;;;14.30;99.90;13.70;100921;;;;569200;248;24117;-79
2023/06/10 02:50:57;;;;;;;3.60;1.30;;;14.30;99.90;13.70;100919;;;;576915;248;24121;-80
2023/06/10 02:53:25;;;;;;;4.80;1.73;;;14.40;99.90;13.80;100929;;;;576529;248;24132;-81
2023/06/10 02:55:54;;;;;;;2.10;1.70;;;14.40;99.90;13.80;100926;;;;576878;248;24085;-79
2023/06/10 02:58:22;;;;;;;6.67;1.30;;;14.40;99.90;13.80;100923;;;;576444;245;24089;-79
2023/06/10 03:00:49;;;;;;;4.00;1.70;;;14.50;99.90;13.90;100928;;;;576643;248;24104;-81
2023/06/10 03:03:18;;;;;;;7.20;1.90;;;14.50;99.90;14.00;100928;;;;576595;248;24077;-80
2023/06/10 03:05:45;;;;;;;5.33;2.00;;;14.50;99.90;14.00;100933;;;;576306;248;24155;-80
2023/06/10 03:08:13;;;;;;;1.57;1.30;;;14.60;99.90;14.10;100930;;;;576420;248;24117;-81
2023/06/10 03:10:41;;;;;;;2.30;1.40;;;14.60;99.90;14.10;100934;;;;568254;248;24086;-80
2023/06/10 03:13:09;;;;;;;4.60;1.20;;;14.70;99.90;14.30;100943;;;;570229;248;24131;-81
2023/06/10 03:15:40;;;;;;;2.27;1.40;;;15.10;99.90;14.60;100939;;;;575979;248;24082;-81
2023/06/10 03:18:07;;;;;;;3.23;1.53;;;15.50;99.90;15.10;100937;;;;575847;248;24168;-81
2023/06/10 03:20:39;;;;;;;2.80;1.53;;;16.00;99.90;15.60;100937;;;;576297;248;24145;-81
2023/06/10 03:23:08;;;;;;;3.40;1.37;;;16.00;99.90;16.00;100933;;;;575856;248;24127;-80
2023/06/10 03:25:36;;;;;;;5.73;1.87;;;16.40;99.90;16.50;100935;;;;568400;248;24176;-80
2023/06/10 03:28:04;;;;;;;4.33;1.50;;;16.90;99.90;16.90;100947;;;;576627;248;24084;-82
2023/06/10 03:30:32;;;;;;;10.07;1.73;;;17.30;99.90;17.30;100941;;;;570591;248;24090;-78
2023/06/10 03:33:00;;;;;;;2.77;1.60;;;17.70;99.90;17.60;100937;;;;576429;248;24101;-79
2023/06/10 03:35:28;;;;;;;8.03;1.63;;;18.10;99.90;18.00;100931;;;;576217;248;24094;-78
2023/06/10 03:37:55;;;;;;;2.90;1.47;;;18.40;99.90;18.40;100932;;;;576256;248;24194;-79
2023/06/10 03:40:23;;;;;;;2.47;1.63;;;18.80;99.90;18.70;100929;;;;576630;248;24095;-78
2023/06/10 03:42:51;;;;;;;5.07;1.83;;;19.10;99.90;18.90;100938;;;;576551;248;24094;-80
2023/06/10 03:45:20;;;;;;;7.23;1.93;;;19.70;99.90;19.30;100934;;;;568186;248;25148;-80
2023/06/10 03:47:49;;;;;;;1.47;1.37;;;20.10;99.90;19.70;100935;;;;575898;248;23104;-80
2023/06/10 03:50:17;;;;;;;6.00;1.90;;;20.10;99.90;20.00;100941;;;;565032;248;35253;-81
2023/06/10 03:52:45;;;;;;;5.90;1.60;;;20.50;99.90;20.30;100932;;;;568083;248;24113;-82
2023/06/10 03:55:13;;;;;;;3.90;1.90;;;20.80;99.90;20.50;100941;;;;576014;248;24095;-81
2023/06/10 03:57:40;;;;;;;6.90;2.30;;;21.00;99.90;20.80;100942;;;;568639;248;23123;-82
2023/06/10 04:00:15;;;;;;;5.17;2.10;;;21.40;99.90;21.30;100946;;;;569316;248;24171;-82
2023/06/10 04:02:45;;;;;;;5.83;1.63;;;21.80;99.90;21.80;100949;;;;571155;248;24141;-82
2023/06/10 04:05:10;;;;;;;9.97;2.20;;;22.20;97.00;22.10;100952;;;;570750;248;24105;-80
2023/06/10 04:07:40;;;;;;;5.60;1.70;;;22.60;95.60;22.40;100955;;;;577288;248;24112;-82
2023/06/10 04:10:06;;;;;;;5.60;2.37;;;23.00;93.80;22.70;100953;;;;570612;248;24155;-79
2023/06/10 04:12:34;;;;;;;2.63;1.90;;;23.30;92.30;23.10;100955;;;;570751;248;24097;-82
2023/06/10 04:15:01;;;;;;;3.50;1.80;;;23.70;91.20;23.40;100948;;;;577041;248;23085;-82
2023/06/10 04:17:30;;;;;;;10.60;1.63;;;24.00;90.10;23.90;100957;;;;568976;248;24092;-81
2023/06/10 04:20:01;;;;;;;2.00;1.70;;;24.40;87.10;24.10;100959;;;;576820;248;24172;-81
2023/06/10 04:22:25;;;;;;;2.47;1.93;;;24.70;84.80;24.40;100959;;;;570207;248;23107;-81
2023/06/10 04:24:53;;;;;;;9.30;2.10;;;25.10;83.30;24.70;100973;;;;576976;248;24114;-81
2023/06/10 04:27:21;;;;;;;4.10;2.00;;;25.40;80.50;24.80;100965;;;;579299;246;24139;-80
2023/06/10 04:29:50;;;;;;;2.50;2.13;;;25.80;76.50;25.00;100959;;;;576958;248;24085;-80
2023/06/10 04:32:18;;;;;;;5.07;1.83;;;25.80;76.40;25.20;100975;;;;576942;248;23106;-81
2023/06/10 04:34:45;;;;;;;3.33;1.77;;;26.00;75.20;25.40;100982;;;;576732;248;23130;-79
2023/06/10 04:37:14;;;;;;;5.57;2.30;;;26.20;74.00;25.60;100987;;;;576783;248;24121;-79
2023/06/10 04:39:41;;;;;;;8.10;2.40;;;26.50;72.80;25.80;100991;;;;576891;248;23136;-78
2023/06/10 04:42:10;;;;;;;2.80;1.60;;;26.70;70.90;25.80;100999;;;;576451;248;24148;-81
2023/06/10 04:44:38;;;;;;;3.73;1.77;;;26.80;69.70;25.80;100984;;;;575969;248;23173;-81
2023/06/10 04:47:07;;;;;;;3.77;1.87;;;26.80;69.10;26.10;100985;;;;575686;248;23148;-82
2023/06/10 04:49:34;;;;;;;3.20;1.97;;;27.50;66.50;26.50;100985;;;;576205;248;24083;-81
2023/06/10 04:52:04;;;;;;;3.83;1.97;;;27.50;66.50;26.80;101003;;;;576560;248;24144;-79
2023/06/10 04:54:30;;;;;;;7.33;2.40;;;27.80;65.70;27.10;100996;;;;576464;248;23100;-81
2023/06/10 04:56:57;;;;;;;8.17;1.90;;;28.20;63.90;27.40;100997;;;;579259;247;24122;-80
2023/06/10 04:59:26;;;;;;;7.67;2.50;;;28.50;62.60;27.80;101008;;;;562023;252;23154;-79
2023/06/10 05:01:54;;;;;;;3.60;1.97;;;28.90;62.40;28.10;101010;;;;570828;249;23194;-79
2023/06/10 05:04:21;;;;;;;4.80;1.97;;;29.20;60.00;28.40;101013;;;;561881;252;23160;-80
2023/06/10 05:06:49;;;;;;;2.03;1.80;;;29.60;58.70;28.90;101021;;;;570250;252;23109;-82
2023/06/10 05:09:17;;;;;;;5.23;1.93;;;30.00;57.40;28.90;101018;;;;561355;252;23136;-79
2023/06/10 05:11:46;;;;;;;4.77;2.00;;;30.10;56.90;29.10;101018;;;;563114;251;23237;-80
2023/06/10 05:14:16;;;;;;;3.23;1.83;;;30.20;56.20;29.30;101021;;;;571242;248;23185;-78
2023/06/10 05:16:43;;;;;;;3.73;1.90;;;30.50;55.40;29.50;101026;;;;562237;251;23137;-79
2023/06/10 05:19:11;;;;;;;6.63;1.80;;;30.70;55.00;30.00;101029;;;;570319;252;23145;-80
2023/06/10 05:21:38;;;;;;;1.73;1.62;;;31.10;54.00;30.20;101030;;;;562208;247;23155;-80
2023/06/10 05:24:06;;;;;;;6.50;2.22;;;31.40;53.40;30.70;101031;;;;571113;249;23129;-79
2023/06/10 05:26:37;;;;;;;5.78;2.12;;;31.70;52.80;30.70;101038;;;;562623;252;23120;-81
2023/06/10 05:29:02;;;;;;;6.35;2.20;;;31.70;52.20;30.60;101053;;;;565704;248;35311;-81
2023/06/10 05:31:29;;;;;;;8.85;2.45;;;31.70;52.00;30.30;101054;;;;570361;248;23171;-80
2023/06/10 05:34:01;;;;;;;4.55;2.08;;;31.60;51.80;30.40;101042;;;;576310;248;24118;-80
2023/06/10 05:36:27;;;;;;;7.40;1.98;;;31.80;51.80;30.80;101054;;;;569863;248;24143;-79
2023/06/10 05:38:54;;;;;;;2.65;1.87;;;31.80;51.70;31.20;101059;;;;576607;248;24092;-82
2023/06/10 05:41:22;;;;;;;5.43;2.10;;;32.10;50.60;31.00;101063;;;;576102;248;23097;-81
2023/06/10 05:43:50;;;;;;;7.47;2.40;;;32.10;50.10;31.00;101064;;;;576386;248;23104;-82
2023/06/10 05:46:18;;;;;;;4.20;2.08;;;32.10;50.20;31.30;101061;;;;575987;248;23097;-82
2023/06/10 05:48:46;;;;;;;3.55;2.28;;;32.30;49.70;31.60;101065;;;;575729;248;23155;-82
2023/06/10 05:51:14;;;;;;;5.47;2.10;;;32.50;49.30;32.10;101060;;;;575792;248;24129;-80
2023/06/10 05:53:41;;;;;;;3.40;2.08;;;32.90;49.10;32.50;101066;;;;570881;248;35388;-82
2023/06/10 05:56:09;;;;;;;3.40;1.75;;;33.30;48.00;32.70;101064;;;;575807;248;23098;-83
2023/06/10 05:58:37;;;;;;;8.55;2.22;;;33.50;47.50;33.10;101081;;;;575768;246;23151;-81
2023/06/10 06:01:07;;;;;;;4.18;2.00;;;33.90;47.20;33.50;101068;;;;578733;247;24115;-82
2023/06/10 06:03:35;;;;;;;2.87;1.87;;;34.50;45.80;33.70;101072;;;;576074;248;23119;-81
2023/06/10 06:06:04;;;;;;;8.85;2.40;;;34.80;45.80;34.00;101078;;;;576095;248;24109;-81
2023/06/10 06:08:33;;;;;;;7.18;1.70;;;35.20;45.10;34.50;101089;;;;576053;248;24105;-81
2023/06/10 06:11:01;;;;;;;5.87;2.03;;;35.10;45.00;34.10;101096;;;;576086;248;23196;-80
2023/06/10 06:13:28;;;;;;;10.43;2.15;;;35.10;44.80;33.90;101092;;;;576080;248;23115;-80
2023/06/10 06:15:56;;;;;;;10.65;2.53;;;34.90;45.30;33.90;101081;;;;576084;248;23175;-81
2023/06/10 06:18:24;;;;;;;10.45;1.65;;;34.80;44.90;34.00;101088;;;;575812;248;23161;-80
2023/06/10 06:20:52;;;;;;;5.65;1.95;;;34.80;44.70;33.90;101083;;;;575835;248;23113;-81
2023/06/10 06:23:20;;;;;;;6.18;2.17;;;34.80;44.60;33.90;101089;;;;578079;247;23143;-79
2023/06/10 06:25:51;;;;;;;2.65;1.80;;;34.80;45.00;34.20;101094;;;;577369;248;23119;-81
2023/06/10 06:28:16;;;;;;;6.82;2.10;;;35.00;44.90;34.20;101103;;;;570653;248;24090;-81
2023/06/10 06:30:44;;;;;;;4.95;1.90;;;35.00;45.10;33.90;101093;;;;564032;248;35307;-80
2023/06/10 06:33:12;;;;;;;2.78;1.73;;;34.80;44.40;33.70;101093;;;;576396;248;23122;-80
2023/06/10 06:35:40;;;;;;;4.32;2.03;;;34.80;44.70;33.90;101104;;;;577277;248;23134;-78
2023/06/10 06:38:08;;;;;;;7.68;1.92;;;35.00;44.80;34.20;101103;;;;577491;248;23100;-79
2023/06/10 06:40:37;;;;;;;8.82;1.83;;;35.10;44.50;34.30;101108;;;;576924;248;23184;-80
2023/06/10 06:43:05;;;;;;;3.20;1.70;;;35.00;44.40;34.70;101111;;;;576473;248;25153;-80
2023/06/10 06:45:33;;;;;;;3.33;1.27;;;35.30;43.80;35.10;101107;;;;576298;248;24197;-80
2023/06/10 06:48:01;;;;;;;6.30;1.48;;;35.70;43.10;35.30;101113;;;;568276;248;23141;-81
2023/06/10 06:50:29;;;;;;;2.70;1.40;;;35.90;43.00;35.70;101122;;;;575892;248;23113;-82
2023/06/10 06:52:57;;;;;;;6.32;1.50;;;36.40;43.10;35.80;101138;;;;575998;248;23100;-80
2023/06/10 06:55:24;;;;;;;3.22;1.60;;;36.60;42.50;35.70;101145;;;;575992;248;23104;-82
2023/06/10 06:57:52;;;;;;;4.97;1.70;;;36.50;42.50;35.70;101132;;;;575709;246;23125;-81
2023/06/10 07:00:23;;;;;;;4.22;1.45;;;36.40;42.70;35.70;101138;;;;575761;248;23137;-81
2023/06/10 07:02:51;;;;;;;3.58;1.77;;;36.40;42.60;35.80;101138;;;;567447;248;23119;-82
2023/06/10 07:05:16;;;;;;;4.35;2.03;;;36.50;42.90;35.80;101135;;;;571522;247;23107;-81
2023/06/10 07:07:44;;;;;;;5.32;1.70;;;36.50;42.40;35.60;101162;;;;561587;252;23137;-80
2023/06/10 07:10:14;;;;;;;4.07;1.55;;;36.20;42.60;35.40;101157;;;;570048;249;24119;-81
2023/06/10 07:12:41;;;;;;;9.48;2.10;;;36.10;42.90;35.40;101163;;;;561541;252;23187;-82
2023/06/10 07:15:10;;;;;;;5.75;2.03;;;36.10;42.90;35.30;101164;;;;569394;252;24123;-81
2023/06/10 07:17:38;;;;;;;5.22;2.15;;;36.10;42.80;35.40;101164;;;;561650;252;23135;-82
2023/06/10 07:20:06;;;;;;;5.90;2.00;;;36.10;42.80;35.30;101161;;;;567904;253;23130;-82
2023/06/10 07:22:34;;;;;;;7.03;1.90;;;36.00;42.40;35.40;101167;;;;584662;242;24115;-83
2023/06/10 07:25:02;;;;;;;2.85;1.87;;;36.10;42.10;35.60;101154;;;;588932;242;23126;-81
2023/06/10 07:27:30;;;;;;;7.47;2.12;;;36.20;42.50;35.80;101169;;;;588890;243;23075;-84
2023/06/10 07:29:58;;;;;;;5.22;1.95;;;36.50;42.80;35.60;101161;;;;589360;243;23126;-82
2023/06/10 07:32:26;;;;;;;4.03;1.67;;;36.40;42.90;35.60;101166;;;;589435;243;23078;-83
2023/06/10 07:34:53;;;;;;;3.12;1.60;;;36.40;42.40;36.30;101173;;;;590937;241;23090;-81
2023/06/10 07:37:21;;;;;;;2.03;1.73;;;36.80;42.20;37.00;101169;;;;590478;242;23096;-82
2023/06/10 07:39:49;;;;;;;2.95;1.48;;;37.50;41.20;37.40;101159;;;;590211;243;24114;-82
2023/06/10 07:42:18;;;;;;;3.78;1.77;;;37.90;40.70;37.30;101170;;;;590128;243;23091;-82
2023/06/10 07:44:46;;;;;;;1.65;1.35;;;37.90;40.20;37.20;101165;;;;580855;244;23064;-81
2023/06/10 07:47:14;;;;;;;2.25;1.67;;;37.90;40.10;37.50;101173;;;;580874;244;23103;-83
2023/06/10 07:49:42;;;;;;;7.18;1.87;;;38.20;39.70;37.60;101173;;;;589934;243;24142;-82
2023/06/10 07:52:13;;;;;;;4.68;1.50;;;38.30;39.70;37.90;101175;;;;586723;244;23090;-83
2023/06/10 07:54:38;;;;;;;5.47;1.90;;;38.60;39.50;38.30;101176;;;;580351;244;23162;-83
2023/06/10 07:57:09;;;;;;;5.05;2.45;;;38.90;39.30;38.40;101181;;;;589297;243;23063;-80
2023/06/10 07:59:37;;;;;;;7.75;2.03;;;39.10;38.60;38.30;101184;;;;580731;244;23118;-82
2023/06/10 08:02:02;;;;;;;2.22;1.30;;;39.00;39.00;38.50;101188;;;;580132;244;23138;-82
2023/06/10 08:04:30;;;;;;;2.20;1.20;;;39.00;39.00;39.40;101181;;;;580575;244;24198;-82
2023/06/10 08:06:58;;;;;;;4.97;1.65;;;39.60;39.00;40.20;101188;;;;589455;243;23089;-83
2023/06/10 08:09:25;;;;;;;8.27;1.50;;;40.40;37.90;40.40;101191;;;;580166;244;24157;-83
2023/06/10 08:11:53;;;;;;;3.53;1.60;;;40.80;37.30;40.70;101192;;;;589387;243;23051;-84
2023/06/10 08:14:21;;;;;;;3.37;1.40;;;41.00;36.80;40.20;101202;;;;580049;244;23064;-83
2023/06/10 08:16:49;;;;;;;7.50;1.80;;;40.90;36.60;40.20;101199;;;;589202;243;23080;-83
2023/06/10 08:19:17;;;;;;;2.50;1.85;;;40.70;36.40;40.40;101191;;;;589001;243;23075;-84
2023/06/10 08:21:45;;;;;;;4.65;1.85;;;40.90;36.50;40.90;101198;;;;586194;244;23075;-84
2023/06/10 08:24:16;;;;;;;4.05;1.33;;;41.20;35.90;40.60;101189;;;;589076;243;23106;-84
2023/06/10 08:26:41;;;;;;;5.22;2.00;;;41.30;36.00;40.30;101206;;;;579843;244;23081;-85
2023/06/10 08:29:09;;;;;;;1.95;1.30;;;41.10;36.10;39.70;101205;;;;580086;244;23061;-82
2023/06/10 08:31:37;;;;;;;6.55;1.67;;;40.40;37.00;39.40;101202;;;;589334;243;23173;-83
2023/06/10 08:34:05;;;;;;;6.72;1.85;;;40.30;36.90;38.70;101193;;;;589325;243;23071;-81
2023/06/10 08:36:33;;;;;;;5.45;2.05;;;39.90;36.90;38.60;101188;;;;589361;243;23103;-81
2023/06/10 08:39:01;;;;;;;6.03;1.77;;;39.60;37.10;38.90;101193;;;;589418;243;23072;-82
2023/06/10 08:41:29;;;;;;;10.18;1.80;;;39.60;37.20;38.80;101201;;;;586639;244;23083;-84
2023/06/10 08:44:03;;;;;;;7.40;1.77;;;39.60;37.00;38.70;101200;;;;580357;244;23131;-82
2023/06/10 08:46:32;;;;;;;11.02;2.12;;;39.50;37.60;38.70;101195;;;;581304;243;24139;-83
2023/06/10 08:49:00;;;;;;;6.37;1.80;;;39.50;37.20;38.70;101200;;;;581271;243;23089;-84
2023/06/10 08:51:28;;;;;;;4.65;1.48;;;39.50;37.10;38.20;101207;;;;581034;244;23079;-83
2023/06/10 08:54:02;;;;;;;7.00;2.03;;;39.30;37.10;37.80;101200;;;;580644;244;23080;-83
2023/06/10 08:56:30;;;;;;;4.00;2.12;;;38.60;37.60;37.20;101206;;;;580278;244;23079;-83
2023/06/10 08:59:01;;;;;;;10.43;1.98;;;38.60;37.60;37.30;101194;;;;589482;242;23085;-84
2023/06/10 09:01:26;;;;;;;7.57;1.60;;;38.50;37.90;37.30;101207;;;;580325;244;24087;-81
2023/06/10 09:03:55;;;;;;;6.60;1.65;;;38.60;38.40;37.40;101192;;;;580681;244;23078;-81
2023/06/10 09:06:23;;;;;;;7.03;1.42;;;38.50;38.30;37.40;101205;;;;580556;244;23102;-83
2023/06/10 09:08:51;;;;;;;2.53;1.27;;;38.60;38.20;37.70;101210;;;;586885;244;23066;-81
2023/06/10 09:11:19;;;;;;;7.72;1.10;;;38.70;38.10;37.80;101195;;;;586801;244;23084;-81
2023/06/10 09:13:47;;;;;;;3.12;1.58;;;38.80;38.40;37.90;101204;;;;580604;244;23078;-81
2023/06/10 09:16:16;;;;;;;3.65;1.42;;;39.00;37.70;38.00;101203;;;;589684;243;23091;-81
2023/06/10 09:18:46;;;;;;;9.52;1.65;;;39.10;38.50;38.70;101196;;;;585244;243;46059;-80
2023/06/10 09:21:11;;;;;;;3.83;1.40;;;39.70;37.70;38.90;101212;;;;584592;244;23082;-80
2023/06/10 09:23:38;;;;;;;3.10;1.52;;;40.00;36.80;38.70;101207;;;;588972;243;23094;-83
2023/06/10 09:26:07;;;;;;;6.30;1.37;;;39.80;36.30;38.50;101199;;;;580343;244;23092;-82
2023/06/10 09:28:35;;;;;;;1.37;1.27;;;39.40;37.40;37.80;101205;;;;579810;244;23125;-81
2023/06/10 09:31:06;;;;;;;5.82;1.58;;;39.50;37.60;38.10;101215;;;;589272;243;23161;-79
2023/06/10 09:33:34;;;;;;;3.72;1.35;;;39.50;37.50;38.60;101224;;;;580937;244;24105;-79
2023/06/10 09:36:05;;;;;;;6.87;1.50;;;39.70;37.40;38.10;101218;;;;587297;244;23072;-79
2023/06/10 09:38:30;;;;;;;3.92;1.60;;;39.60;37.60;37.50;101205;;;;580295;244;25305;-80
2023/06/10 09:41:01;;;;;;;5.78;1.33;;;39.20;38.60;37.30;101216;;;;580230;244;24128;-80
2023/06/10 09:43:43;;;;;;;4.47;1.45;;;38.80;39.20;37.60;101215;;;;579934;244;23085;-81
2023/06/10 09:46:20;;;;;;;1.55;1.40;;;38.90;39.90;38.20;101225;;;;586484;244;23089;-80
2023/06/10 09:48:48;;;;;;;2.78;1.35;;;39.40;39.90;38.80;101218;;;;580320;244;23105;-81
2023/06/10 09:51:19;;;;;;;5.90;1.52;;;39.90;39.50;39.50;101229;;;;580142;244;24139;-81
2023/06/10 09:53:52;;;;;;;6.62;1.35;;;40.60;38.10;39.10;101240;;;;580075;244;23196;-80
2023/06/10 09:56:20;;;;;;;7.22;1.48;;;40.70;37.40;38.40;101229;;;;580246;243;23082;-82
2023/06/10 09:58:49;;;;;;;6.60;1.60;;;39.80;38.50;37.80;101229;;;;584891;243;23117;-81
2023/06/10 10:01:17;;;;;;;2.95;1.80;;;39.80;37.80;37.40;101228;;;;580357;244;23076;-82
2023/06/10 10:03:48;;;;;;;4.25;1.70;;;39.50;38.70;37.60;101224;;;;589370;243;23111;-82
2023/06/10 10:06:20;;;;;;;5.22;1.85;;;39.40;39.30;38.00;101232;;;;580728;244;23116;-81
2023/06/10 10:08:48;;;;;;;6.32;1.50;;;39.60;37.40;38.30;101230;;;;580284;244;24159;-82
2023/06/10 10:11:19;;;;;;;2.05;1.30;;;39.60;37.40;37.70;101216;;;;580527;244;23114;-82
2023/06/10 10:13:47;;;;;;;4.25;1.55;;;39.30;37.60;37.50;101222;;;;580566;244;23068;-81
2023/06/10 10:16:20;;;;;;;4.82;1.80;;;39.00;37.70;36.30;101227;;;;589342;243;23108;-82
2023/06/10 10:18:57;;;;;;;4.90;1.65;;;38.20;38.40;35.20;101228;;;;589265;244;24144;-80
2023/06/10 10:21:25;;;;;;;5.80;1.50;;;37.10;39.80;34.90;101223;;;;579676;244;24144;-82
2023/06/10 10:23:54;;;;;;;2.05;1.75;;;35.80;41.10;34.00;101217;;;;580378;244;23078;-82
2023/06/10 10:26:23;;;;;;;3.45;1.80;;;35.10;42.70;33.50;101223;;;;579716;244;24073;-80
2023/06/10 10:28:59;;;;;;;3.80;2.10;;;35.00;42.40;33.20;101200;;;;580261;244;23083;-81
2023/06/10 10:31:30;;;;;;;6.12;1.70;;;34.60;42.60;32.20;101217;;;;580226;244;23074;-82
2023/06/10 10:33:58;;;;;;;5.25;1.98;;;33.90;42.90;31.10;101224;;;;579521;244;23162;-81
2023/06/10 10:36:26;;;;;;;3.87;1.80;;;32.90;44.70;30.00;101209;;;;579379;244;23091;-84
2023/06/10 10:38:54;;;;;;;6.72;1.48;;;31.80;46.20;29.10;101214;;;;586478;244;23104;-81
2023/06/10 10:41:22;;;;;;;2.97;1.33;;;30.60;46.20;27.80;101203;;;;586312;244;23087;-83
2023/06/10 10:43:51;;;;;;;1.00;1.00;;;29.20;48.10;26.50;101190;;;;580226;244;23083;-82
2023/06/10 10:46:18;;;;;;;1.20;1.10;;;27.60;50.70;25.40;101200;;;;580138;244;24111;-81
2023/06/10 10:48:45;;;;;;;2.47;1.30;;;26.30;53.30;24.20;101204;;;;580203;244;23130;-84
2023/06/10 10:51:13;;;;;;;1.70;0.90;;;25.10;54.60;23.10;101215;;;;580141;244;24175;-82
2023/06/10 10:53:44;;;;;;;1.20;1.07;;;23.20;60.80;22.30;101210;;;;579971;244;23144;-82
2023/06/10 10:56:20;;;;;;;3.43;1.37;;;22.30;62.50;21.60;101189;;;;589214;243;24077;-82
2023/06/10 10:58:45;;;;;;;5.05;1.70;;;21.80;64.60;21.10;101201;;;;580650;241;46033;-81
2023/06/10 11:01:17;;;;;;;9.23;1.20;;;21.20;66.80;20.60;101201;;;;577362;244;24065;-82
2023/06/10 11:03:47;;;;;;;8.13;1.57;;;21.20;65.90;20.20;101200;;;;579817;244;24077;-81
2023/06/10 11:06:13;;;;;;;2.20;1.20;;;20.80;67.90;19.90;101188;;;;588700;244;24073;-83
2023/06/10 11:08:40;;;;;;;3.90;1.60;;;20.40;69.90;19.70;101202;;;;580328;243;24054;-81
2023/06/10 11:11:27;;;;;;;2.73;1.00;;;20.20;72.00;19.50;101186;;;;581402;243;23151;-83
2023/06/10 11:14:08;;;;;;;3.63;0.90;;;19.80;72.50;19.30;101196;;;;589561;243;24087;-81
2023/06/10 11:16:38;;;;;;;4.23;1.40;;;19.70;72.30;19.10;101194;;;;589449;243;24074;-83